Airfield :
LOGIN :

Register | Disclaimer

   EN    FR    IT 

 










Legend :    VFR   Marginal VFR   IFR   Intensive IFR   Very Intensive IFR
Visi :
Ceiling :
>= 8 km
>= 3000ft
5 to 8 km
1000 to 3000 ft
1500m to 5 km
500 to 1000 ft
800 to 1500m
200 to 500 ft
< 800m
< 200 ft
Symbols :   Thunderstorms  Fog  Heavy snow  Heavy precipitations  Wind > 20 kt
SIGMETs :     Misc.  Thunderstorms  Icing  Turbulence  Mountain Waves  Volcanic Ashes






- Airport Elevation : 174 ft
- IATA code : RYG


ENRY - Moss , Rygge

CURRENT METAR :
  • 200520Z AUTO 22008KT 9999NDV FEW140/// 05/01 Q1031

EXPIRED METARs :
  • 200450Z AUTO 22009KT 9999NDV NCD 05/01 Q1031 REUP
  • 200420Z AUTO 22009KT 9999NDV SCT068/// 05/01 Q1031
  • 200350Z AUTO 22008KT 9999NDV FEW068/// 05/00 Q1032
  • 200320Z AUTO 22008KT 9999NDV NCD 05/M00 Q1032
  • 200250Z AUTO 20005KT 160V230 9999NDV NCD 04/M01 Q1033

TAF TAF ENRY
Valid from the 20 at 00:00 until the 21 at 00:00 UTC


2000/2024 22006KT CAVOK
TEMPO 2017/2024 24015G25KT



MET'MAP, your aeronautical weather chart ! - Copyright ORBIFLY December 2007 - Disclaimer

ORBIFLY MET'MAP TEAM :

Programming & Development : Alexandra Zaïnal
Concept & original design : Baudouin d'Aumeries
Assistance for programming : Marc-Olivier Méhu
Technical & hardware support : Manuel Goepfert

Contact : metmap@orbifly.com




SOURCES & CREDITS :

   NOAA